createdAt,value
2018-07-28T00:00:30.901Z,4.57
2018-07-28T00:01:04.001Z,4.75
2018-07-28T00:01:37.110Z,5.07
2018-07-28T00:02:10.363Z,3.92
2018-07-28T00:02:43.501Z,4.97
2018-07-28T00:03:17.607Z,5.32
2018-07-28T00:03:53.364Z,5.12
2018-07-28T00:05:31.692Z,5.07
2018-07-28T00:06:05.096Z,5.03
2018-07-28T00:06:44.447Z,4.82
2018-07-28T06:01:48.986Z,4.85
2018-07-28T06:05:20.032Z,5.25
2018-07-28T06:05:56.740Z,5.20
2018-07-28T06:06:30.913Z,4.50
2018-07-28T06:08:59.573Z,4.57
2018-07-28T06:09:32.620Z,4.82
2018-07-28T06:10:06.465Z,4.65
2018-07-28T06:10:39.558Z,4.57
2018-07-28T06:11:12.576Z,5.68
2018-07-28T06:11:45.633Z,5.10
2018-07-28T06:12:19.457Z,4.53
2018-07-28T06:12:52.495Z,5.00
2018-07-28T06:13:26.299Z,5.22
2018-07-28T06:13:59.344Z,4.93
2018-07-28T06:14:32.400Z,4.75
2018-07-28T06:15:06.407Z,4.82
2018-07-28T06:15:40.224Z,4.97
2018-07-28T06:16:14.043Z,4.65
2018-07-28T06:16:47.087Z,4.57
2018-07-28T06:19:31.015Z,5.37
2018-07-28T06:20:04.065Z,5.03
2018-07-28T06:20:37.080Z,4.28
2018-07-28T06:21:10.889Z,4.70
2018-07-28T06:21:45.427Z,4.85
2018-07-28T06:22:50.960Z,4.80
2018-07-28T06:27:15.374Z,5.12
2018-07-28T06:27:48.431Z,4.87
2018-07-28T06:28:22.209Z,4.40
2018-07-28T06:28:55.250Z,5.03
2018-07-28T06:29:28.271Z,5.20
2018-07-28T06:30:01.320Z,5.30
2018-07-28T06:30:35.136Z,4.90
2018-07-28T06:31:08.180Z,5.22
2018-07-28T06:31:42.003Z,5.03
2018-07-28T06:32:15.014Z,5.30
2018-07-28T06:32:49.265Z,4.72
2018-07-28T06:33:22.971Z,5.00
2018-07-28T06:33:55.995Z,5.10
2018-07-28T06:34:29.048Z,5.25
2018-07-28T06:35:02.096Z,5.03
2018-07-28T06:35:35.120Z,4.95
2018-07-28T06:36:09.359Z,4.85
2018-07-28T06:36:42.350Z,5.37
2018-07-28T06:37:15.374Z,5.37
2018-07-28T06:37:48.400Z,5.20
2018-07-28T06:38:21.428Z,5.35
2018-07-28T06:38:54.460Z,4.87
2018-07-28T06:39:27.542Z,4.97
2018-07-28T06:40:00.561Z,4.90
2018-07-28T06:40:33.591Z,5.10
2018-07-28T06:41:06.630Z,5.37
2018-07-28T06:41:39.673Z,4.87
2018-07-28T06:42:12.728Z,5.28
2018-07-28T06:42:45.763Z,5.20
2018-07-28T06:43:18.799Z,5.25
2018-07-28T06:43:51.829Z,5.10
2018-07-28T06:44:24.868Z,5.50
2018-07-28T06:44:58.688Z,4.93
2018-07-28T06:45:33.304Z,4.95
2018-07-28T06:46:06.354Z,4.75
2018-07-28T06:46:40.160Z,5.05
2018-07-28T06:47:13.203Z,5.07
2018-07-28T06:47:46.215Z,5.12
2018-07-28T06:48:19.255Z,4.80
2018-07-28T06:48:53.049Z,5.25
2018-07-28T06:49:26.090Z,4.78
2018-07-28T06:49:59.136Z,5.03
2018-07-28T06:50:32.188Z,5.50
2018-07-28T06:51:05.986Z,4.75
2018-07-28T06:51:39.763Z,5.30
2018-07-28T06:52:13.566Z,5.65
2018-07-28T06:52:46.608Z,4.80
2018-07-28T06:53:19.638Z,4.97
2018-07-28T06:53:52.672Z,5.18
2018-07-28T06:54:27.635Z,5.25
2018-07-28T06:55:00.867Z,5.37
2018-07-28T06:55:35.335Z,5.43
2018-07-28T06:56:08.351Z,5.20
2018-07-28T06:56:41.380Z,5.28
2018-07-28T06:57:14.424Z,5.47
2018-07-28T06:57:49.349Z,5.45
2018-07-28T07:07:05.572Z,5.80
2018-07-28T07:34:57.967Z,7.20
2018-07-28T07:35:31.023Z,6.75
2018-07-28T07:36:04.098Z,6.45
2018-07-28T07:36:37.112Z,6.87
2018-07-28T07:56:51.659Z,6.53
2018-07-28T08:02:20.560Z,7.03
2018-07-28T08:02:53.611Z,6.68
2018-07-28T08:03:27.476Z,6.72
2018-07-28T08:04:01.108Z,6.70
2018-07-28T08:07:51.119Z,6.07
2018-07-28T08:08:25.536Z,6.45
2018-07-28T08:08:58.564Z,6.62
2018-07-28T08:09:31.587Z,5.90
2018-07-28T08:10:05.413Z,5.97
2018-07-28T08:10:38.441Z,5.75
2018-07-28T08:11:11.482Z,5.20
2018-07-28T08:11:44.530Z,5.62
2018-07-28T08:12:18.323Z,5.70
2018-07-28T08:12:51.343Z,6.12
2018-07-28T08:13:24.383Z,5.53
2018-07-28T08:13:57.424Z,5.95
2018-07-28T08:14:30.448Z,4.85
2018-07-28T08:15:03.704Z,5.70
2018-07-28T08:15:36.751Z,5.25
2018-07-28T08:16:10.571Z,5.40
2018-07-28T08:16:43.831Z,5.40
2018-07-28T08:17:17.614Z,5.70
2018-07-28T08:17:51.426Z,5.40
2018-07-28T08:18:25.248Z,5.07
2018-07-28T08:18:58.272Z,5.28
2018-07-28T08:19:32.080Z,5.43
2018-07-28T08:20:05.909Z,4.80
2018-07-28T08:20:38.963Z,4.20
2018-07-28T08:21:11.994Z,4.93
2018-07-28T08:21:45.044Z,4.68
2018-07-28T08:22:18.071Z,4.95
2018-07-28T08:22:52.728Z,4.25
2018-07-28T08:23:25.737Z,4.62
2018-07-28T08:23:58.789Z,4.03
2018-07-28T08:24:31.843Z,4.45
2018-07-28T08:25:04.871Z,4.12
2018-07-28T08:25:38.687Z,4.10
2018-07-28T08:26:12.502Z,4.95
2018-07-28T08:26:45.595Z,4.43
2018-07-28T08:27:19.705Z,4.90
2018-07-28T08:27:52.692Z,4.25
2018-07-28T08:28:25.733Z,4.10
2018-07-28T08:28:59.617Z,4.72
2018-07-28T08:29:32.653Z,3.97
2018-07-28T08:30:06.468Z,4.15
2018-07-28T08:30:39.524Z,4.68
2018-07-28T08:31:13.330Z,4.53
2018-07-28T08:31:46.371Z,4.20
2018-07-28T08:32:19.392Z,4.85
2018-07-28T08:32:52.425Z,3.80
2018-07-28T08:33:26.469Z,4.10
2018-07-28T08:34:01.161Z,4.57
2018-07-28T08:34:34.210Z,4.10
2018-07-28T08:35:07.246Z,4.18
2018-07-28T08:35:40.332Z,4.22
2018-07-28T08:36:13.371Z,4.50
2018-07-28T08:36:46.951Z,4.35
2018-07-28T08:37:19.975Z,4.12
2018-07-28T08:37:53.061Z,4.12
2018-07-28T08:38:26.048Z,4.10
2018-07-28T08:38:59.090Z,3.97
2018-07-28T08:39:32.116Z,4.15
2018-07-28T08:40:05.982Z,3.80
2018-07-28T08:40:39.711Z,4.03
2018-07-28T08:41:12.755Z,4.22
2018-07-28T08:41:46.568Z,3.92
2018-07-28T08:42:20.369Z,4.28
2018-07-28T08:42:54.179Z,3.97
2018-07-28T08:43:27.215Z,4.05
2018-07-28T08:44:01.020Z,4.37
2018-07-28T08:44:34.811Z,3.85
2018-07-28T08:45:08.589Z,3.92
2018-07-28T08:45:42.400Z,4.07
2018-07-28T08:46:16.254Z,4.47
2018-07-28T08:46:49.524Z,4.18
2018-07-28T08:47:22.554Z,4.80
2018-07-28T08:47:55.640Z,4.55
2018-07-28T08:48:28.664Z,4.18
2018-07-28T08:49:01.751Z,4.50
2018-07-28T08:49:34.831Z,3.95
2018-07-28T08:50:07.792Z,4.20
2018-07-28T08:50:40.840Z,4.15
2018-07-28T08:51:13.915Z,4.07
2018-07-28T08:51:46.984Z,4.72
2018-07-28T08:52:21.023Z,4.20
2018-07-28T08:52:54.066Z,4.12
2018-07-28T08:53:27.307Z,3.80
2018-07-28T08:54:00.342Z,4.18
2018-07-28T08:54:33.408Z,4.00
2018-07-28T08:55:06.401Z,4.10
2018-07-28T08:55:39.518Z,4.12
2018-07-28T08:56:12.475Z,4.45
2018-07-28T08:56:46.279Z,4.20
2018-07-28T08:57:19.310Z,4.37
2018-07-28T08:57:52.352Z,3.72
2018-07-28T08:58:26.282Z,4.28
2018-07-28T08:58:59.316Z,4.78
2018-07-28T08:59:32.365Z,4.15
2018-07-28T09:00:05.431Z,4.10
2018-07-28T09:00:38.465Z,3.97
2018-07-28T09:01:11.497Z,3.67
2018-07-28T09:01:44.540Z,4.00
2018-07-28T09:02:17.555Z,3.92
2018-07-28T09:02:50.602Z,3.95
2018-07-28T09:03:23.856Z,4.00
2018-07-28T09:03:56.887Z,3.67
2018-07-28T09:04:29.939Z,4.50
2018-07-28T09:05:03.769Z,3.90
2018-07-28T09:05:36.827Z,3.90
2018-07-28T09:06:09.881Z,3.80
2018-07-28T09:06:43.684Z,4.00
2018-07-28T09:07:16.709Z,4.20
2018-07-28T09:07:49.760Z,4.47
2018-07-28T09:08:22.776Z,4.50
2018-07-28T09:08:55.814Z,4.35
2018-07-28T09:09:28.844Z,4.68
2018-07-28T09:10:01.878Z,4.25
2018-07-28T09:10:34.925Z,4.40
2018-07-28T09:11:08.712Z,3.92
2018-07-28T09:11:41.745Z,4.18
2018-07-28T09:12:15.893Z,4.12
2018-07-28T09:12:48.842Z,4.20
2018-07-28T09:13:21.866Z,4.57
2018-07-28T09:13:54.969Z,4.60
2018-07-28T09:14:28.773Z,4.20
2018-07-28T09:15:02.554Z,4.15
2018-07-28T09:15:36.347Z,4.00
2018-07-28T09:16:10.152Z,4.30
2018-07-28T09:16:43.188Z,3.95
2018-07-28T09:17:16.227Z,4.10
2018-07-28T09:17:49.270Z,4.12
2018-07-28T09:18:23.073Z,4.05
2018-07-28T09:18:56.128Z,4.25
2018-07-28T09:19:29.919Z,4.07
2018-07-28T09:20:04.000Z,4.68
2018-07-28T09:20:36.979Z,4.25
2018-07-28T09:21:10.031Z,4.40
2018-07-28T09:21:43.089Z,4.47
2018-07-28T09:22:17.048Z,4.25
2018-07-28T09:22:51.570Z,4.25
2018-07-28T09:23:26.624Z,4.43
2018-07-28T09:23:59.582Z,4.60
2018-07-28T09:24:32.596Z,4.80
2018-07-28T09:25:05.673Z,5.00
2018-07-28T09:25:38.701Z,5.03
2018-07-28T09:26:11.765Z,4.62
2018-07-28T09:26:45.571Z,4.80
2018-07-28T09:27:18.619Z,4.97
2018-07-28T09:27:52.404Z,4.95
2018-07-28T09:28:26.200Z,5.47
2018-07-28T09:29:00.015Z,4.90
2018-07-28T09:29:33.047Z,5.57
2018-07-28T09:30:06.278Z,4.90
2018-07-28T09:44:20.317Z,4.95
2018-07-28T09:44:53.435Z,5.20
2018-07-28T09:45:26.522Z,5.62
2018-07-28T09:46:00.378Z,5.65
2018-07-28T09:50:21.264Z,4.80
2018-07-28T09:51:26.976Z,5.40
2018-07-28T09:52:01.400Z,4.97
2018-07-28T09:52:34.452Z,5.25
2018-07-28T09:53:07.529Z,5.82
2018-07-28T09:53:40.596Z,5.07
2018-07-28T09:54:14.177Z,4.95
2018-07-28T09:54:47.240Z,5.12
2018-07-28T09:55:20.303Z,5.43
2018-07-28T09:55:53.368Z,4.97
2018-07-28T09:56:26.478Z,4.78
2018-07-28T09:56:59.561Z,4.50
2018-07-28T09:57:32.608Z,4.93
2018-07-28T09:58:05.665Z,5.60
2018-07-28T09:58:38.750Z,5.28
2018-07-28T09:59:11.817Z,5.15
2018-07-28T09:59:45.685Z,4.75
2018-07-28T10:00:18.756Z,5.00
2018-07-28T10:00:51.837Z,4.90
2018-07-28T10:01:24.908Z,5.05
2018-07-28T10:01:57.957Z,4.90
2018-07-28T10:04:09.558Z,4.75
2018-07-28T10:05:49.164Z,5.07
2018-07-28T10:07:42.109Z,5.40
2018-07-28T10:08:15.264Z,5.40
2018-07-28T10:09:21.663Z,5.07
2018-07-28T10:09:55.476Z,4.55
2018-07-28T10:10:28.549Z,4.68
2018-07-28T10:11:01.640Z,4.93
2018-07-28T10:11:35.282Z,5.00
2018-07-28T10:12:08.339Z,4.40
2018-07-28T10:12:42.612Z,4.62
2018-07-28T10:13:15.674Z,5.22
2018-07-28T10:13:50.312Z,5.05
2018-07-28T10:14:23.621Z,4.80
2018-07-28T10:14:56.676Z,4.68
2018-07-28T10:15:29.751Z,4.30
2018-07-28T10:16:02.783Z,4.40
2018-07-28T10:16:35.900Z,4.60
2018-07-28T10:17:08.973Z,5.10
2018-07-28T10:17:42.020Z,3.72
2018-07-28T10:18:15.059Z,4.40
2018-07-28T10:18:48.105Z,4.75
2018-07-28T10:19:24.661Z,4.75
2018-07-28T10:19:57.734Z,4.60
2018-07-28T10:20:30.785Z,4.25
2018-07-28T10:21:04.611Z,4.45
2018-07-28T10:21:37.689Z,4.70
2018-07-28T10:22:11.061Z,4.82
2018-07-28T10:22:44.160Z,4.45
2018-07-28T10:23:17.164Z,4.62
2018-07-28T10:23:51.223Z,4.80
2018-07-28T10:28:50.360Z,4.53
2018-07-28T10:29:24.165Z,4.62
2018-07-28T10:29:57.996Z,4.62
2018-07-28T10:30:31.641Z,4.37
2018-07-28T10:31:05.458Z,4.22
2018-07-28T10:31:38.537Z,4.75
2018-07-28T10:32:11.576Z,4.40
2018-07-28T10:32:45.383Z,4.70
2018-07-28T10:33:18.441Z,4.97
2018-07-28T10:33:51.492Z,4.50
2018-07-28T10:35:29.764Z,4.25
2018-07-28T10:36:03.589Z,4.72
2018-07-28T10:36:36.662Z,5.35
2018-07-28T10:37:09.714Z,4.32
2018-07-28T10:37:42.743Z,4.50
2018-07-28T10:38:16.559Z,4.68
2018-07-28T10:38:49.616Z,4.97
2018-07-28T10:39:22.684Z,4.70
2018-07-28T10:39:56.513Z,4.85
2018-07-28T10:40:30.325Z,4.30
2018-07-28T10:41:03.382Z,4.30
2018-07-28T10:41:36.424Z,4.72
2018-07-28T10:42:09.484Z,4.60
2018-07-28T10:42:42.524Z,4.65
2018-07-28T10:43:15.573Z,4.72
2018-07-28T10:43:48.965Z,4.57
2018-07-28T10:44:22.219Z,5.50
2018-07-28T10:44:55.265Z,4.72
2018-07-28T10:45:28.319Z,5.03
2018-07-28T10:46:02.169Z,4.82
2018-07-28T10:46:36.100Z,5.18
2018-07-28T10:47:09.175Z,5.05
2018-07-28T10:47:42.217Z,5.55
2018-07-28T10:48:15.276Z,5.12
2018-07-28T10:48:48.333Z,5.70
2018-07-28T10:49:22.298Z,5.65
2018-07-28T10:49:55.336Z,5.30
2018-07-28T10:50:28.395Z,5.03
2018-07-28T10:51:01.452Z,5.40
2018-07-28T10:51:34.511Z,5.75
2018-07-28T10:52:07.551Z,5.10
2018-07-28T10:52:40.592Z,5.53
2018-07-28T10:53:14.395Z,5.82
2018-07-28T10:53:48.212Z,4.95
2018-07-28T10:54:21.272Z,6.28
2018-07-28T10:54:54.319Z,4.85
2018-07-28T10:55:27.384Z,5.30
2018-07-28T10:56:00.394Z,5.15
2018-07-28T10:56:33.449Z,5.37
2018-07-28T10:57:07.272Z,5.28
2018-07-28T10:57:40.321Z,4.65
2018-07-28T10:58:14.142Z,4.87
2018-07-28T10:58:47.912Z,4.60
2018-07-28T10:59:21.045Z,5.40
2018-07-28T10:59:54.092Z,4.40
2018-07-28T11:00:27.167Z,4.85
2018-07-28T11:01:00.948Z,5.00
2018-07-28T11:01:34.008Z,4.72
2018-07-28T11:02:07.845Z,4.78
2018-07-28T11:02:40.898Z,5.05
2018-07-28T11:03:13.933Z,5.12
2018-07-28T11:03:47.765Z,4.65
2018-07-28T11:04:20.811Z,4.43
2018-07-28T11:04:54.641Z,4.62
2018-07-28T11:05:27.683Z,4.40
2018-07-28T11:06:00.735Z,5.07
2018-07-28T11:06:33.792Z,5.10
2018-07-28T11:07:06.859Z,4.85
2018-07-28T11:07:39.902Z,4.57
2018-07-28T11:08:12.939Z,5.32
2018-07-28T11:08:45.993Z,4.72
2018-07-28T11:09:19.025Z,4.82
2018-07-28T11:09:52.068Z,4.87
2018-07-28T11:10:25.161Z,4.30
2018-07-28T11:10:58.983Z,4.32
2018-07-28T11:11:32.796Z,4.82
2018-07-28T11:12:06.720Z,4.75
2018-07-28T11:12:39.791Z,4.45
2018-07-28T11:13:12.868Z,4.72
2018-07-28T11:13:45.921Z,4.55
2018-07-28T11:14:18.984Z,5.18
2018-07-28T11:14:52.029Z,4.50
2018-07-28T11:15:25.085Z,4.30
2018-07-28T11:15:58.143Z,4.70
2018-07-28T11:16:31.194Z,4.30
2018-07-28T11:17:04.498Z,4.22
2018-07-28T11:17:37.544Z,4.80
2018-07-28T11:18:11.397Z,4.62
2018-07-28T11:18:45.253Z,4.50
2018-07-28T11:19:18.244Z,4.55
2018-07-28T11:19:52.937Z,4.40
2018-07-28T11:20:25.982Z,4.68
2018-07-28T11:20:59.064Z,4.60
2018-07-28T11:21:32.116Z,5.05
2018-07-28T11:22:05.164Z,5.12
2018-07-28T11:22:39.015Z,4.93
2018-07-28T11:23:12.196Z,4.82
2018-07-28T11:23:45.246Z,4.00
2018-07-28T11:24:18.289Z,4.43
2018-07-28T11:24:52.132Z,4.43
2018-07-28T11:25:25.196Z,4.32
2018-07-28T11:25:58.273Z,4.25
2018-07-28T11:26:31.292Z,4.65
2018-07-28T11:27:04.354Z,4.70
2018-07-28T11:27:37.429Z,4.45
2018-07-28T11:28:10.456Z,4.32
2018-07-28T11:28:43.499Z,4.47
2018-07-28T11:29:17.319Z,4.43
2018-07-28T11:29:51.095Z,4.78
2018-07-28T11:30:24.885Z,4.20
2018-07-28T11:30:58.693Z,4.22
2018-07-28T11:33:05.221Z,4.50
2018-07-28T11:33:50.244Z,3.87
2018-07-28T11:34:45.103Z,4.32
2018-07-28T11:35:30.096Z,4.15
2018-07-28T11:37:21.733Z,4.15
2018-07-28T11:38:06.694Z,3.83
2018-07-28T11:38:51.713Z,4.03
2018-07-28T11:39:36.669Z,4.35
2018-07-28T11:41:51.795Z,4.35
2018-07-28T11:42:36.857Z,4.47
2018-07-28T11:43:32.401Z,4.65
2018-07-28T11:44:17.508Z,4.55
2018-07-28T11:44:50.569Z,4.35
2018-07-28T11:45:23.613Z,4.20
2018-07-28T11:45:56.685Z,4.07
2018-07-28T11:46:29.700Z,4.07
2018-07-28T11:47:03.509Z,4.30
2018-07-28T11:47:36.579Z,4.10
2018-07-28T11:48:09.692Z,4.93
2018-07-28T11:48:42.747Z,4.57
2018-07-28T11:49:16.544Z,4.60
2018-07-28T11:49:50.232Z,4.30
2018-07-28T11:50:23.242Z,4.23
2018-07-28T11:50:56.288Z,4.37
2018-07-28T11:51:29.348Z,4.32
2018-07-28T11:52:02.396Z,4.32
2018-07-28T11:52:36.218Z,3.90
2018-07-28T11:53:09.249Z,4.13
2018-07-28T11:53:43.167Z,4.12
2018-07-28T11:54:16.965Z,3.90
2018-07-28T11:54:50.040Z,4.07
2018-07-28T11:55:23.846Z,4.00
2018-07-28T11:55:56.884Z,4.00
2018-07-28T11:56:29.923Z,3.78
2018-07-28T11:57:02.984Z,4.37
2018-07-28T11:57:36.033Z,4.15
2018-07-28T11:58:09.159Z,4.70
2018-07-28T11:58:42.884Z,3.40
2018-07-28T11:59:16.691Z,3.80
2018-07-28T11:59:50.518Z,4.13
2018-07-28T12:00:23.545Z,4.40
2018-07-28T12:00:56.586Z,4.47
2018-07-28T12:01:29.628Z,4.50
2018-07-28T12:02:02.656Z,4.33
2018-07-28T12:02:35.700Z,3.97
2018-07-28T12:03:09.034Z,4.30
2018-07-28T12:03:42.072Z,3.77
2018-07-28T12:04:15.100Z,3.90
2018-07-28T12:04:48.138Z,3.63
2018-07-28T12:05:21.228Z,3.87
2018-07-28T12:05:54.233Z,4.10
2018-07-28T12:06:28.128Z,3.83
2018-07-28T12:07:01.162Z,4.10
2018-07-28T12:07:34.219Z,3.87
2018-07-28T12:08:07.266Z,4.03
2018-07-28T12:08:40.348Z,3.92
2018-07-28T12:09:13.380Z,3.85
2018-07-28T12:09:46.422Z,3.73
2018-07-28T12:10:19.451Z,4.15
2018-07-28T12:10:52.516Z,3.40
2018-07-28T12:11:25.558Z,3.80
2018-07-28T12:11:58.609Z,4.05
2018-07-28T12:12:31.703Z,4.10
2018-07-28T12:13:04.706Z,4.10
2018-07-28T12:13:38.531Z,3.57
2018-07-28T12:14:11.591Z,3.80
2018-07-28T12:14:44.616Z,3.77
2018-07-28T12:15:17.895Z,3.73
2018-07-28T12:15:50.912Z,3.40
2018-07-28T12:16:23.980Z,3.53
2018-07-28T12:16:57.779Z,3.40
2018-07-28T12:17:30.826Z,3.20
2018-07-28T12:18:03.881Z,3.27
2018-07-28T12:18:36.946Z,3.33
2018-07-28T12:19:10.736Z,3.00
2018-07-28T12:19:43.785Z,3.30
2018-07-28T12:20:16.841Z,3.03
2018-07-28T12:20:50.653Z,3.37
2018-07-28T12:21:23.713Z,3.37
2018-07-28T12:21:57.780Z,3.43
2018-07-28T12:22:30.784Z,3.40
2018-07-28T12:23:03.856Z,3.10
2018-07-28T12:23:37.686Z,3.10
2018-07-28T12:24:10.731Z,3.40
2018-07-28T12:24:43.763Z,3.30
2018-07-28T12:25:16.802Z,3.53
2018-07-28T12:25:50.468Z,3.13
2018-07-28T12:26:24.275Z,3.30
2018-07-28T12:26:57.326Z,3.40
2018-07-28T12:27:31.132Z,3.83
2018-07-28T12:28:04.179Z,3.70
2018-07-28T12:28:37.232Z,3.10
2018-07-28T12:29:10.248Z,3.40
2018-07-28T12:29:44.055Z,2.90
2018-07-28T12:30:17.167Z,3.10
2018-07-28T12:30:50.332Z,3.43
2018-07-28T12:31:24.128Z,4.10
2018-07-28T12:31:57.174Z,4.30
2018-07-28T12:32:30.224Z,4.00
2018-07-28T12:33:04.037Z,4.57
2018-07-28T12:33:37.073Z,6.12
2018-07-28T12:34:10.113Z,7.53
2018-07-28T12:34:43.204Z,4.80
2018-07-28T12:35:16.226Z,5.00
2018-07-28T12:35:49.275Z,4.15
2018-07-28T12:36:22.331Z,3.53
2018-07-28T12:36:55.381Z,3.70
2018-07-28T12:37:28.468Z,3.78
2018-07-28T12:38:01.566Z,3.70
2018-07-28T12:38:34.624Z,5.35
2018-07-28T12:39:07.700Z,5.15
2018-07-28T12:39:40.745Z,5.28
2018-07-28T12:40:14.239Z,4.18
2018-07-28T12:40:47.272Z,4.32
2018-07-28T12:41:20.304Z,4.50
2018-07-28T12:41:53.345Z,4.60
2018-07-28T12:42:26.391Z,4.47
2018-07-28T12:43:00.464Z,3.80
2018-07-28T12:43:33.524Z,4.53
2018-07-28T12:44:06.590Z,5.03
2018-07-28T12:44:39.624Z,3.97
2018-07-28T12:45:13.422Z,3.95
2018-07-28T12:45:46.462Z,4.25
2018-07-28T12:46:19.527Z,4.57
2018-07-28T12:46:52.572Z,3.70
2018-07-28T12:47:25.607Z,4.20
2018-07-28T12:47:58.640Z,3.75
2018-07-28T12:48:31.693Z,4.00
2018-07-28T12:49:04.755Z,3.90
2018-07-28T12:49:38.554Z,3.80
2018-07-28T12:50:12.528Z,3.70
2018-07-28T12:50:46.348Z,3.83
2018-07-28T12:51:20.423Z,3.90
2018-07-28T12:51:53.473Z,4.65
2018-07-28T12:52:26.554Z,3.62
2018-07-28T12:52:59.576Z,4.32
2018-07-28T12:53:32.628Z,3.90
2018-07-28T12:54:06.426Z,3.83
2018-07-28T12:54:40.244Z,3.90
2018-07-28T12:55:14.249Z,3.70
2018-07-28T12:55:47.287Z,3.55
2018-07-28T12:56:21.139Z,4.03
2018-07-28T12:56:54.145Z,4.00
2018-07-28T12:57:27.952Z,3.90
2018-07-28T12:58:01.004Z,3.83
2018-07-28T12:58:34.059Z,3.90
2018-07-28T12:59:07.104Z,3.85
2018-07-28T12:59:40.300Z,3.58
2018-07-28T13:00:13.456Z,4.40
2018-07-28T13:00:46.509Z,3.95
2018-07-28T13:01:19.554Z,3.87
2018-07-28T13:01:52.596Z,4.10
2018-07-28T13:02:25.651Z,4.10
2018-07-28T13:02:58.708Z,4.50
2018-07-28T13:03:31.747Z,3.75
2018-07-28T13:04:05.395Z,3.87
2018-07-28T13:04:38.429Z,4.03
2018-07-28T13:05:12.240Z,4.10
2018-07-28T13:05:45.283Z,3.70
2018-07-28T13:06:18.728Z,3.78
2018-07-28T13:06:51.748Z,3.95
2018-07-28T13:07:25.578Z,3.50
2018-07-28T13:07:58.613Z,3.87
2018-07-28T13:08:31.688Z,3.90
2018-07-28T13:09:04.745Z,3.85
2018-07-28T13:09:37.803Z,4.30
2018-07-28T13:10:10.855Z,4.18
2018-07-28T13:10:44.639Z,4.00
2018-07-28T13:11:17.679Z,3.70
2018-07-28T13:11:51.652Z,3.97
2018-07-28T13:12:24.745Z,4.12
2018-07-28T13:12:57.764Z,4.07
2018-07-28T13:13:30.854Z,3.85
2018-07-28T13:14:04.687Z,3.65
2018-07-28T13:14:37.731Z,3.87
2018-07-28T13:15:10.817Z,3.42
2018-07-28T13:15:43.839Z,3.47
2018-07-28T13:16:17.675Z,3.53
2018-07-28T13:16:50.711Z,3.85
2018-07-28T13:17:23.788Z,3.75
2018-07-28T13:17:58.976Z,3.87
2018-07-28T13:18:32.040Z,3.72
2018-07-28T13:19:05.205Z,4.85
2018-07-28T13:19:38.259Z,3.53
2018-07-28T13:20:11.286Z,3.75
2018-07-28T13:20:44.332Z,3.90
2018-07-28T13:21:17.400Z,3.67
2018-07-28T13:21:50.435Z,3.80
2018-07-28T13:22:24.243Z,4.03
2018-07-28T13:22:57.296Z,3.50
2018-07-28T13:23:30.339Z,4.00
2018-07-28T13:24:03.401Z,3.92
2018-07-28T13:24:36.436Z,3.72
2018-07-28T13:25:09.497Z,3.85
2018-07-28T13:25:43.315Z,3.40
2018-07-28T13:26:17.713Z,3.80
2018-07-28T13:26:50.745Z,4.00
2018-07-28T13:27:23.783Z,4.00
2018-07-28T13:27:56.874Z,4.00
2018-07-28T13:28:29.943Z,4.12
2018-07-28T13:29:03.001Z,4.70
2018-07-28T13:29:36.063Z,3.67
2018-07-28T13:30:09.083Z,4.20
2018-07-28T13:30:42.112Z,4.10
2018-07-28T13:31:15.167Z,3.72
2018-07-28T13:31:48.211Z,4.65
2018-07-28T13:32:21.254Z,4.12
2018-07-28T13:32:55.175Z,3.60
2018-07-28T13:33:29.015Z,4.07
2018-07-28T13:34:02.850Z,3.65
2018-07-28T13:34:35.898Z,4.07
2018-07-28T13:35:08.929Z,3.97
2018-07-28T13:35:41.969Z,3.58
2018-07-28T13:36:15.018Z,4.10
2018-07-28T13:36:48.060Z,4.00
2018-07-28T13:37:22.077Z,3.87
2018-07-28T13:37:55.876Z,4.00
2018-07-28T13:38:28.923Z,4.03
2018-07-28T13:39:01.964Z,3.62
2018-07-28T13:39:35.026Z,4.20
2018-07-28T13:40:08.061Z,4.22
2018-07-28T13:40:41.099Z,4.32
2018-07-28T13:41:14.153Z,4.55
2018-07-28T13:41:54.812Z,4.07
2018-07-28T13:42:27.852Z,3.87
2018-07-28T13:43:00.907Z,4.07
2018-07-28T13:43:33.962Z,4.10
2018-07-28T13:44:07.962Z,3.87
2018-07-28T13:44:41.013Z,3.72
2018-07-28T13:45:14.045Z,5.05
2018-07-28T13:45:47.094Z,4.00
2018-07-28T13:46:20.136Z,3.87
2018-07-28T13:46:53.190Z,3.80
2018-07-28T13:47:26.222Z,4.20
2018-07-28T13:47:59.277Z,4.10
2018-07-28T13:48:33.257Z,3.75
2018-07-28T13:49:06.294Z,3.87
2018-07-28T13:49:39.356Z,4.50
2018-07-28T13:50:13.163Z,3.72
2018-07-28T13:50:46.225Z,3.50
2018-07-28T13:51:19.255Z,3.55
2018-07-28T13:51:52.303Z,3.80
2018-07-28T13:52:25.339Z,4.15
2018-07-28T13:52:58.392Z,3.90
2018-07-28T13:53:31.455Z,3.80
2018-07-28T13:54:04.656Z,4.40
2018-07-28T13:54:38.530Z,3.90
2018-07-28T13:55:12.204Z,4.15
2018-07-28T13:55:45.222Z,4.30
2018-07-28T13:56:18.283Z,4.60
2018-07-28T13:56:51.331Z,4.30
2018-07-28T13:57:24.499Z,4.05
2018-07-28T13:57:57.540Z,5.03
2018-07-28T13:58:31.362Z,4.40
2018-07-28T13:59:04.460Z,4.25
2018-07-28T13:59:37.432Z,4.37
2018-07-28T14:00:10.535Z,5.00
2018-07-28T14:00:43.535Z,4.85
2018-07-28T14:01:17.339Z,5.37
2018-07-28T14:01:50.375Z,4.47
2018-07-28T14:02:23.455Z,4.80
2018-07-28T14:02:56.467Z,4.70
2018-07-28T14:03:29.682Z,4.37
2018-07-28T14:04:02.737Z,4.85
2018-07-28T14:04:35.784Z,4.82
2018-07-28T14:05:09.593Z,4.60
2018-07-28T14:05:42.649Z,4.57
2018-07-28T14:06:15.705Z,4.60
2018-07-28T14:06:48.743Z,5.05
2018-07-28T14:07:21.781Z,5.10
2018-07-28T14:07:54.825Z,4.87
2018-07-28T14:08:27.871Z,4.90
2018-07-28T14:09:01.865Z,5.07
2018-07-28T14:09:34.888Z,5.03
2018-07-28T14:10:07.935Z,4.93
2018-07-28T14:10:40.980Z,4.82
2018-07-28T14:11:13.991Z,5.00
2018-07-28T14:11:47.043Z,4.43
2018-07-28T14:12:20.184Z,5.05
2018-07-28T14:12:53.119Z,5.03
2018-07-28T14:13:26.165Z,5.53
2018-07-28T14:13:59.211Z,4.90
2018-07-28T14:14:32.263Z,5.15
2018-07-28T14:15:05.441Z,5.30
2018-07-28T14:15:38.340Z,5.65
2018-07-28T14:16:12.129Z,4.93
2018-07-28T14:16:45.172Z,6.10
2018-07-28T14:17:18.211Z,5.72
2018-07-28T14:17:51.266Z,5.45
2018-07-28T14:18:24.411Z,5.00
2018-07-28T14:18:59.076Z,5.32
2018-07-28T14:19:32.143Z,4.85
2018-07-28T14:20:05.187Z,5.22
2018-07-28T14:20:38.224Z,5.72
2018-07-28T14:21:11.273Z,5.40
2018-07-28T14:21:44.324Z,5.55
2018-07-28T14:22:18.387Z,5.18
2018-07-28T14:22:52.188Z,5.72
2018-07-28T14:23:26.021Z,5.50
2018-07-28T14:23:59.071Z,5.85
2018-07-28T14:24:32.124Z,5.10
2018-07-28T14:25:05.251Z,5.70
2018-07-28T14:25:39.025Z,5.68
2018-07-28T14:26:12.789Z,5.28
2018-07-28T14:26:46.582Z,6.07
2018-07-28T14:27:20.430Z,5.70
2018-07-28T14:27:53.594Z,5.32
2018-07-28T14:28:26.643Z,5.80
2018-07-28T14:28:59.721Z,5.30
2018-07-28T14:29:32.771Z,5.72
2018-07-28T14:30:05.820Z,5.25
2018-07-28T14:30:38.881Z,5.80
2018-07-28T14:31:11.944Z,5.90
2018-07-28T14:31:44.989Z,5.82
2018-07-28T14:32:18.020Z,5.53
2018-07-28T14:32:51.836Z,6.05
2018-07-28T14:33:24.900Z,5.65
2018-07-28T14:33:57.936Z,5.78
2018-07-28T14:34:30.985Z,5.87
2018-07-28T14:35:04.080Z,6.28
2018-07-28T14:35:37.124Z,6.30
2018-07-28T14:36:10.918Z,5.97
2018-07-28T14:36:43.972Z,6.22
2018-07-28T14:37:17.005Z,6.53
2018-07-28T14:37:50.046Z,5.53
2018-07-28T14:38:23.084Z,6.18
2018-07-28T14:38:56.144Z,5.93
2018-07-28T14:39:29.184Z,5.35
2018-07-28T14:40:02.242Z,5.68
2018-07-28T14:40:36.051Z,5.72
2018-07-28T14:41:09.271Z,6.43
2018-07-28T14:41:42.283Z,6.00
2018-07-28T14:42:15.350Z,6.47
2018-07-28T14:42:48.785Z,6.78
2018-07-28T14:43:21.825Z,6.15
2018-07-28T14:43:54.875Z,5.90
2018-07-28T14:44:27.918Z,6.40
2018-07-28T14:45:00.969Z,6.22
2018-07-28T14:45:34.028Z,6.10
2018-07-28T14:46:07.830Z,6.30
2018-07-28T14:46:40.893Z,5.70
2018-07-28T14:47:13.980Z,6.18
2018-07-28T14:47:48.240Z,6.70
2018-07-28T14:48:21.244Z,5.70
2018-07-28T14:48:54.424Z,5.68
2018-07-28T14:49:27.472Z,6.47
2018-07-28T14:50:00.520Z,5.93
2018-07-28T14:50:34.337Z,5.82
2018-07-28T14:51:07.402Z,6.00
2018-07-28T14:51:40.424Z,6.22
2018-07-28T14:52:13.463Z,6.45
2018-07-28T14:52:46.594Z,6.70
2018-07-28T14:53:19.628Z,6.40
2018-07-28T14:53:53.411Z,6.18
2018-07-28T14:54:27.242Z,6.12
2018-07-28T14:55:01.153Z,5.80
2018-07-28T14:55:34.207Z,5.32
2018-07-28T14:56:07.262Z,6.03
2018-07-28T14:56:41.057Z,6.57
2018-07-28T14:57:14.857Z,6.03
2018-07-28T14:57:47.916Z,5.93
2018-07-28T14:58:20.950Z,6.25
2018-07-28T14:58:53.991Z,5.78
2018-07-28T14:59:27.068Z,5.93
2018-07-28T15:00:00.110Z,6.57
2018-07-28T15:00:33.156Z,5.97
2018-07-28T15:01:06.192Z,6.10
2018-07-28T15:01:39.264Z,6.18
2018-07-28T15:02:12.296Z,6.07
2018-07-28T15:02:45.356Z,6.37
2018-07-28T15:03:18.418Z,6.65
2018-07-28T15:03:52.384Z,6.22
2018-07-28T15:04:26.164Z,6.00
2018-07-28T15:04:59.968Z,6.20
2018-07-28T15:05:33.012Z,6.32
2018-07-28T15:06:06.055Z,6.30
2018-07-28T15:06:39.110Z,6.87
2018-07-28T15:07:12.146Z,6.07
2018-07-28T15:07:45.966Z,5.80
2018-07-28T15:08:19.037Z,6.68
2018-07-28T15:08:52.810Z,6.37
2018-07-28T15:09:26.648Z,6.57